Ingham Composite, Queensland

12:51 AM AEST on July 25, 2016 (GMT +1000)
Toobanna | | Change Station

Elev 66 ft 18.70 °S, 146.15 °E | Updated 6 seconds ago

Clear
Clear
62.0 °F
Feels Like 62.0 °F
N
0.0
Wind Variable Wind from North
Gusts 3.0 mph

Today
High -- | Low -- °F
--% Chance of Precip.
Yesterday
High -- | Low -- °F
Precip. -- in
Pressure 29.98 in
Visibility 6.2 miles
Clouds
Dew Point 61 °F
Humidity 98%
Rainfall 0.00 in
Snow Depth Not available.
6:45 AM 5:58 PM
Waning Gibbous, 75% visible
METAR YBTL 241430Z AUTO 00000KT 9999 // NCD 20/19 Q1015
Pressure 29.98 in
Visibility 6.2 miles
Clouds
Dew Point 61 °F
Humidity 98%
Rainfall 0.00 in
Snow Depth Not available.
6:45 AM 5:58 PM
Waning Gibbous, 75% visible
METAR YBTL 241430Z AUTO 00000KT 9999 // NCD 20/19 Q1015

10-Day Weather Forecast

Almanac

Astronomy

Jul. 25, 2016 Rise Set
Actual Time
Civil Twilight
Nautical Twilight
Astronomical Twilight
Moon
Length of Visible Light
Length of Day
Tomorrow will be .
, % of the Moon is Illuminated

Today's Extremes

Country Highs Country Lows

Community

WunderPhotos

Upload Photos

1,927,071 photos uploaded!

WunderBlog® & News

Nearby

Air Quality

  Air Quality AQ Index Pollutant
Not available.

Snow Depth

Station Depth Elevation

Earthquake Activity

City Distance Mag. Time & Date
Minimum magnitude displayed is 2.5.

Coastal Water Temperatures

Place Temperature

Stations

Nearby Weather Stations

Station Location Temp. Windchill Dew Point Humidity Wind Precip. Elev Updated Type